Time;durP1;ratioP1;P1;durP2;ratioP2;P2;SDS_P1;SDS_P2;PMS_P1;PMS_P2;Temp;Humidity;BMP_temperature;BMP_pressure;BME280_temperature;BME280_humidity;BME280_pressure;Samples;Min_cycle;Max_cycle;Signal;HPM_P1;HPM_P2
2023/09/09 00:01:42;;;;;;;11.85;10.82;;;24.60;78.10;;;;;;5009287;28;20041;-69
2023/09/09 00:04:09;;;;;;;13.43;11.93;;;24.60;78.10;;;;;;5016452;28;20045;-68
2023/09/09 00:06:35;;;;;;;11.80;10.77;;;24.50;78.00;;;;;;5014551;28;20052;-67
2023/09/09 00:09:01;;;;;;;10.85;9.82;;;24.60;78.20;;;;;;5014956;28;20041;-67
2023/09/09 00:11:27;;;;;;;12.05;10.95;;;24.50;78.00;;;;;;5009124;28;20044;-67
2023/09/09 00:13:53;;;;;;;13.18;11.50;;;24.50;78.10;;;;;;5005816;28;20268;-67
2023/09/09 00:16:19;;;;;;;13.35;11.77;;;24.50;78.10;;;;;;5011794;28;20045;-67
2023/09/09 00:18:45;;;;;;;12.20;10.93;;;24.50;78.10;;;;;;5012630;28;20043;-67
2023/09/09 00:21:11;;;;;;;13.35;12.05;;;24.50;78.20;;;;;;5010480;28;20079;-68
2023/09/09 00:23:37;;;;;;;11.70;10.60;;;24.60;78.30;;;;;;5015363;28;20052;-68
2023/09/09 00:26:03;;;;;;;11.68;10.45;;;24.50;78.20;;;;;;5014478;28;20116;-67
2023/09/09 00:28:29;;;;;;;11.73;10.52;;;24.50;78.20;;;;;;5017833;28;20034;-67
2023/09/09 00:30:55;;;;;;;11.95;10.82;;;24.50;78.30;;;;;;5014316;28;20026;-68
2023/09/09 00:33:21;;;;;;;12.38;10.43;;;24.50;78.30;;;;;;5011020;28;20186;-67
2023/09/09 00:35:47;;;;;;;12.73;11.50;;;24.50;78.30;;;;;;5014664;28;20037;-67
2023/09/09 00:38:13;;;;;;;12.38;11.07;;;24.50;78.30;;;;;;5015265;28;20371;-68
2023/09/09 00:40:44;;;;;;;12.10;11.00;;;24.50;78.30;;;;;;5016627;28;20034;-69
2023/09/09 00:43:10;;;;;;;14.88;11.55;;;24.50;78.40;;;;;;5016426;28;20034;-70
2023/09/09 00:45:38;;;;;;;12.23;11.00;;;24.50;78.40;;;;;;5015304;28;20033;-69
2023/09/09 00:48:04;;;;;;;12.68;10.70;;;24.50;78.50;;;;;;5014911;28;20044;-68
2023/09/09 00:50:31;;;;;;;11.82;10.65;;;24.50;78.50;;;;;;5013923;28;20046;-69
2023/09/09 00:52:57;;;;;;;11.48;10.45;;;24.50;78.50;;;;;;5015603;28;20089;-69
2023/09/09 00:55:27;;;;;;;11.50;10.40;;;24.40;78.30;;;;;;5017744;28;20117;-70
2023/09/09 00:57:53;;;;;;;12.27;11.15;;;24.40;78.40;;;;;;5014755;28;20202;-68
2023/09/09 01:00:19;;;;;;;12.63;11.43;;;24.40;78.40;;;;;;5016280;28;20407;-70
2023/09/09 01:02:45;;;;;;;12.32;10.95;;;24.40;78.50;;;;;;5017154;28;20045;-69
2023/09/09 01:05:11;;;;;;;11.70;10.55;;;24.40;78.50;;;;;;5015765;28;20124;-69
2023/09/09 01:07:48;;;;;;;11.75;10.65;;;24.40;78.60;;;;;;5021583;28;20025;-67
2023/09/09 01:10:17;;;;;;;11.40;10.30;;;24.40;78.60;;;;;;5015187;28;20039;-69
2023/09/09 01:12:44;;;;;;;11.93;9.77;;;24.40;78.70;;;;;;5006816;28;20240;-68
2023/09/09 01:15:11;;;;;;;11.95;10.95;;;24.30;78.50;;;;;;5011372;28;20543;-67
2023/09/09 01:17:38;;;;;;;12.32;10.52;;;24.30;78.50;;;;;;5013456;28;20663;-67
2023/09/09 01:20:09;;;;;;;12.35;11.18;;;24.30;78.50;;;;;;5009528;28;20072;-67
2023/09/09 01:22:37;;;;;;;11.77;10.35;;;24.30;78.60;;;;;;5034223;28;20521;-67
2023/09/09 01:25:07;;;;;;;11.63;10.43;;;24.30;78.60;;;;;;5007647;28;20129;-67
2023/09/09 01:27:33;;;;;;;13.27;10.60;;;24.20;78.50;;;;;;5020432;28;20115;-68
2023/09/09 01:30:13;;;;;;;11.77;10.48;;;24.20;78.60;;;;;;5013536;28;20044;-68
2023/09/09 01:32:39;;;;;;;11.63;10.40;;;24.20;78.60;;;;;;5020639;28;21180;-68
2023/09/09 01:35:06;;;;;;;10.85;9.77;;;24.20;78.70;;;;;;5013673;28;20095;-69
2023/09/09 01:37:33;;;;;;;12.57;10.98;;;24.10;78.60;;;;;;5014450;28;20026;-68
2023/09/09 01:40:09;;;;;;;11.50;10.07;;;24.10;78.70;;;;;;5012643;28;20033;-68
2023/09/09 01:42:36;;;;;;;12.70;10.00;;;24.10;78.70;;;;;;5013494;28;20093;-69
2023/09/09 01:45:08;;;;;;;12.07;10.05;;;24.10;78.80;;;;;;5009409;28;20343;-69
2023/09/09 01:47:34;;;;;;;11.73;9.90;;;24.10;78.90;;;;;;5015682;28;20369;-69
2023/09/09 01:50:00;;;;;;;11.63;10.23;;;24.10;78.90;;;;;;5022293;28;20368;-68
2023/09/09 01:52:26;;;;;;;11.32;10.20;;;24.10;79.00;;;;;;5008942;28;20530;-69
2023/09/09 01:54:53;;;;;;;10.32;9.43;;;24.00;78.90;;;;;;5019141;28;20486;-69
2023/09/09 01:57:21;;;;;;;11.20;10.07;;;24.00;78.90;;;;;;5013841;28;20052;-69
2023/09/09 01:59:48;;;;;;;10.93;9.82;;;24.00;78.90;;;;;;5020622;28;20033;-69
2023/09/09 02:02:16;;;;;;;14.43;9.93;;;24.00;79.00;;;;;;5013408;28;20044;-68
2023/09/09 02:04:42;;;;;;;13.30;10.73;;;23.90;78.90;;;;;;5017324;28;20308;-70
2023/09/09 02:07:09;;;;;;;11.25;10.15;;;23.90;78.90;;;;;;5017268;28;20060;-68
2023/09/09 02:09:35;;;;;;;12.07;9.93;;;23.90;79.00;;;;;;5016706;28;20254;-69
2023/09/09 02:12:03;;;;;;;11.77;10.43;;;23.90;79.00;;;;;;5011256;28;20492;-69
2023/09/09 02:14:33;;;;;;;11.07;9.40;;;23.80;78.90;;;;;;5012503;28;20408;-68
2023/09/09 02:16:59;;;;;;;11.55;9.50;;;23.80;78.90;;;;;;5018711;28;20037;-69
2023/09/09 02:19:25;;;;;;;13.98;10.10;;;23.80;79.00;;;;;;5014454;28;20200;-70
2023/09/09 02:21:51;;;;;;;11.48;9.80;;;23.80;79.00;;;;;;5012609;28;20092;-69
2023/09/09 02:24:23;;;;;;;13.52;9.73;;;23.80;79.00;;;;;;5019685;28;20017;-69
2023/09/09 02:26:48;;;;;;;11.10;9.93;;;23.70;78.90;;;;;;5022186;28;20064;-69
2023/09/09 02:29:14;;;;;;;10.23;9.18;;;23.70;79.00;;;;;;5016765;28;20057;-69
2023/09/09 02:31:41;;;;;;;10.68;9.27;;;23.70;79.00;;;;;;5010860;28;20096;-69
2023/09/09 02:34:07;;;;;;;10.57;9.68;;;23.70;79.00;;;;;;5019749;28;20041;-68
2023/09/09 02:36:33;;;;;;;10.38;9.40;;;23.70;79.00;;;;;;5010410;28;20053;-67
2023/09/09 02:38:59;;;;;;;12.27;10.57;;;23.60;78.90;;;;;;5010831;28;20029;-67
2023/09/09 02:41:25;;;;;;;10.50;9.48;;;23.60;79.00;;;;;;5035255;28;20084;-69
2023/09/09 02:43:51;;;;;;;11.13;10.13;;;23.60;79.00;;;;;;5018876;28;20095;-68
2023/09/09 02:46:21;;;;;;;9.63;8.65;;;23.60;79.10;;;;;;5012859;28;20037;-68
2023/09/09 02:48:48;;;;;;;10.48;8.27;;;23.50;78.90;;;;;;5020793;28;20056;-67
2023/09/09 02:51:14;;;;;;;9.82;8.80;;;23.50;79.00;;;;;;5017139;28;20107;-67
2023/09/09 02:53:40;;;;;;;10.90;9.05;;;23.50;79.00;;;;;;5012612;28;20030;-67
2023/09/09 02:56:06;;;;;;;10.05;9.07;;;23.50;79.00;;;;;;5013393;28;20464;-66
2023/09/09 02:58:32;;;;;;;10.07;9.05;;;23.50;79.10;;;;;;5017370;28;20248;-68
2023/09/09 03:01:06;;;;;;;11.85;9.07;;;23.50;79.60;;;;;;5008382;28;20029;-69
2023/09/09 03:03:36;;;;;;;10.93;8.57;;;23.50;79.10;;;;;;5006991;28;20116;-68
2023/09/09 03:06:02;;;;;;;9.98;8.52;;;23.50;79.10;;;;;;5015546;28;20521;-68
2023/09/09 03:08:29;;;;;;;10.38;9.02;;;23.50;79.10;;;;;;5019056;28;20564;-68
2023/09/09 03:10:55;;;;;;;11.20;10.02;;;23.50;79.10;;;;;;5018773;28;20036;-68
2023/09/09 03:13:21;;;;;;;12.20;9.90;;;23.50;79.20;;;;;;5008151;28;20482;-67
2023/09/09 03:15:47;;;;;;;12.00;9.00;;;23.50;79.20;;;;;;5011944;28;20033;-67
2023/09/09 03:18:13;;;;;;;10.30;9.30;;;23.50;79.20;;;;;;5017361;28;20044;-68
2023/09/09 03:20:39;;;;;;;10.90;9.80;;;23.50;79.20;;;;;;5018245;28;20026;-69
2023/09/09 03:23:06;;;;;;;14.18;10.70;;;23.50;79.20;;;;;;5012669;28;20537;-68
2023/09/09 03:25:32;;;;;;;12.20;10.50;;;23.50;79.20;;;;;;5008578;28;20103;-69
2023/09/09 03:27:59;;;;;;;13.05;9.63;;;23.50;79.20;;;;;;5012209;28;20033;-70
2023/09/09 03:30:28;;;;;;;12.07;10.07;;;23.50;79.20;;;;;;5016332;28;20045;-69
2023/09/09 03:32:54;;;;;;;11.63;10.45;;;23.50;79.20;;;;;;5019219;28;20146;-67
2023/09/09 03:35:20;;;;;;;11.60;10.50;;;23.40;79.00;;;;;;5012966;28;20555;-68
2023/09/09 03:37:46;;;;;;;14.18;10.70;;;23.50;79.20;;;;;;5009737;28;20049;-68
2023/09/09 03:40:12;;;;;;;10.85;9.82;;;23.40;79.10;;;;;;5016441;28;20037;-67
2023/09/09 03:42:39;;;;;;;11.73;9.93;;;23.40;79.10;;;;;;5007271;28;20533;-67
2023/09/09 03:45:06;;;;;;;11.60;10.50;;;23.50;79.30;;;;;;5017691;28;20030;-67
2023/09/09 03:47:32;;;;;;;12.05;10.95;;;23.40;79.10;;;;;;5010240;28;20066;-67
2023/09/09 03:49:58;;;;;;;12.65;10.35;;;23.40;79.10;;;;;;5016263;28;20061;-67
2023/09/09 03:52:24;;;;;;;11.70;10.57;;;23.40;79.10;;;;;;5015883;28;20069;-68
2023/09/09 03:54:50;;;;;;;11.73;10.68;;;23.40;79.20;;;;;;5015652;28;20033;-67
2023/09/09 03:57:17;;;;;;;12.25;10.80;;;23.40;79.20;;;;;;5009875;28;20099;-68
2023/09/09 03:59:43;;;;;;;13.55;11.13;;;23.30;79.00;;;;;;5013190;28;20572;-69
2023/09/09 04:02:09;;;;;;;11.65;10.30;;;23.40;79.30;;;;;;5006597;28;20033;-69
2023/09/09 04:04:35;;;;;;;12.20;10.38;;;23.30;79.10;;;;;;5016452;28;20033;-69
2023/09/09 04:07:01;;;;;;;12.82;11.52;;;23.30;79.20;;;;;;5013189;28;20558;-69
2023/09/09 04:09:27;;;;;;;11.88;10.77;;;23.30;79.20;;;;;;5023751;28;20029;-69
2023/09/09 04:11:55;;;;;;;13.60;12.20;;;23.30;79.20;;;;;;5021953;28;20124;-69
2023/09/09 04:14:21;;;;;;;11.93;10.82;;;23.30;79.30;;;;;;5016188;28;20034;-69
2023/09/09 04:16:47;;;;;;;13.02;11.38;;;23.20;79.10;;;;;;5016591;28;20477;-69
2023/09/09 04:19:13;;;;;;;11.30;10.10;;;23.20;79.20;;;;;;5017618;28;20311;-69
2023/09/09 04:21:39;;;;;;;13.13;11.75;;;23.20;79.20;;;;;;5020227;28;20030;-69
2023/09/09 04:24:05;;;;;;;11.77;10.57;;;23.20;79.20;;;;;;5024164;28;20448;-69
2023/09/09 04:26:31;;;;;;;11.15;10.15;;;23.20;79.20;;;;;;5022712;28;20033;-69
2023/09/09 04:29:00;;;;;;;13.52;11.13;;;23.20;79.30;;;;;;5017508;28;20065;-69
2023/09/09 04:31:26;;;;;;;12.77;11.40;;;23.20;79.30;;;;;;5013392;28;20041;-69
2023/09/09 04:33:52;;;;;;;12.50;11.30;;;23.20;79.30;;;;;;5020397;28;20505;-67
2023/09/09 04:36:18;;;;;;;14.23;12.73;;;23.20;79.30;;;;;;5014019;28;20037;-68
2023/09/09 04:38:44;;;;;;;12.45;11.30;;;23.20;79.40;;;;;;5021751;28;20064;-70
2023/09/09 04:41:10;;;;;;;14.65;12.18;;;23.20;79.30;;;;;;5026327;28;20145;-68
2023/09/09 04:43:36;;;;;;;14.65;12.68;;;23.20;79.40;;;;;;5018687;28;20532;-68
2023/09/09 04:46:02;;;;;;;13.90;12.43;;;23.20;79.40;;;;;;5025400;28;20033;-68
2023/09/09 04:48:28;;;;;;;13.85;12.55;;;23.20;79.40;;;;;;5019633;28;20306;-67
2023/09/09 04:50:54;;;;;;;14.07;12.77;;;23.20;79.40;;;;;;5023932;28;20338;-67
2023/09/09 04:53:20;;;;;;;13.35;12.02;;;23.20;79.40;;;;;;5017982;28;20060;-68
2023/09/09 04:55:46;;;;;;;15.23;13.05;;;23.20;79.50;;;;;;5017029;28;20041;-68
2023/09/09 04:58:12;;;;;;;15.00;11.52;;;23.20;79.50;;;;;;5020748;28;20041;-68
2023/09/09 05:00:38;;;;;;;14.82;13.43;;;23.20;79.50;;;;;;5014527;28;20042;-68
2023/09/09 05:03:04;;;;;;;14.40;13.07;;;23.20;79.50;;;;;;5009457;28;20048;-69
2023/09/09 05:05:30;;;;;;;13.88;12.57;;;23.20;79.50;;;;;;4995274;28;20030;-70
2023/09/09 05:07:56;;;;;;;15.18;13.57;;;23.20;79.50;;;;;;5017764;28;20045;-69
2023/09/09 05:10:26;;;;;;;13.95;12.48;;;23.20;79.50;;;;;;5009401;28;20034;-68
2023/09/09 05:12:53;;;;;;;13.38;12.07;;;23.20;79.50;;;;;;5016567;28;20038;-67
2023/09/09 05:15:19;;;;;;;15.05;12.88;;;23.20;79.50;;;;;;5024072;28;20240;-67
2023/09/09 05:17:46;;;;;;;14.18;12.88;;;23.20;79.50;;;;;;5014418;28;20041;-68
2023/09/09 05:20:13;;;;;;;14.90;13.40;;;23.10;79.30;;;;;;5007406;28;20033;-68
2023/09/09 05:22:39;;;;;;;15.82;13.13;;;23.20;79.50;;;;;;5009743;28;20049;-68
2023/09/09 05:25:06;;;;;;;14.23;12.73;;;23.20;79.50;;;;;;5017413;28;20033;-69
2023/09/09 05:27:32;;;;;;;14.80;13.23;;;23.20;79.50;;;;;;5006100;28;20108;-68
2023/09/09 05:29:58;;;;;;;14.15;12.75;;;23.20;79.50;;;;;;5008070;28;20041;-68
2023/09/09 05:32:25;;;;;;;13.45;12.05;;;23.20;79.50;;;;;;5010315;28;20225;-69
2023/09/09 05:34:51;;;;;;;13.73;12.32;;;23.20;79.60;;;;;;5011343;28;20432;-70
2023/09/09 05:37:17;;;;;;;14.68;13.07;;;23.20;79.60;;;;;;5016697;28;20029;-68
2023/09/09 05:39:43;;;;;;;14.43;12.82;;;23.20;79.60;;;;;;5013294;28;20486;-69
2023/09/09 05:42:09;;;;;;;13.68;12.27;;;23.20;79.60;;;;;;5007215;28;20042;-69
2023/09/09 05:44:36;;;;;;;15.57;13.18;;;23.10;79.40;;;;;;5010391;28;20033;-68
2023/09/09 05:47:05;;;;;;;13.80;12.32;;;23.10;79.50;;;;;;4999526;28;20528;-68
2023/09/09 05:49:31;;;;;;;14.07;12.52;;;23.20;79.60;;;;;;5017252;28;20500;-68
2023/09/09 05:51:57;;;;;;;13.82;12.13;;;23.20;79.60;;;;;;5011247;28;20587;-67
2023/09/09 05:54:23;;;;;;;13.57;11.98;;;23.20;79.70;;;;;;5011031;28;20079;-67
2023/09/09 05:56:49;;;;;;;14.23;12.75;;;23.20;79.60;;;;;;5000047;28;20486;-67
2023/09/09 05:59:16;;;;;;;13.85;12.32;;;23.20;79.60;;;;;;5012317;28;20117;-68
2023/09/09 06:01:42;;;;;;;13.57;12.30;;;23.20;79.60;;;;;;5011813;28;20135;-67
2023/09/09 06:04:08;;;;;;;14.52;13.02;;;23.20;79.60;;;;;;5011343;28;20045;-67
2023/09/09 06:06:34;;;;;;;14.75;13.23;;;23.20;79.60;;;;;;5017012;28;20265;-67
2023/09/09 06:09:00;;;;;;;16.23;14.05;;;23.30;79.70;;;;;;5017161;28;20042;-66
2023/09/09 06:11:26;;;;;;;14.32;12.82;;;23.20;79.40;;;;;;5013905;28;20413;-66
2023/09/09 06:13:52;;;;;;;16.45;13.18;;;23.30;79.60;;;;;;5009526;28;20041;-67
2023/09/09 06:16:18;;;;;;;16.67;14.93;;;23.30;79.50;;;;;;5008920;28;20136;-66
2023/09/09 06:18:44;;;;;;;15.65;13.75;;;23.30;79.50;;;;;;5013435;28;20044;-69
2023/09/09 06:21:10;;;;;;;17.63;14.77;;;23.30;79.40;;;;;;5012133;28;20041;-69
2023/09/09 06:23:37;;;;;;;14.25;12.65;;;23.40;79.60;;;;;;5011606;28;20037;-68
2023/09/09 06:26:04;;;;;;;16.02;14.43;;;23.40;79.50;;;;;;5009510;28;20057;-66
2023/09/09 06:28:34;;;;;;;15.45;12.95;;;23.40;79.40;;;;;;5009732;28;20064;-66
2023/09/09 06:31:01;;;;;;;14.05;12.50;;;23.40;79.40;;;;;;5014306;28;20025;-66
2023/09/09 06:33:27;;;;;;;17.92;13.73;;;23.40;79.30;;;;;;5014447;28;20142;-66
2023/09/09 06:35:54;;;;;;;16.13;12.95;;;23.40;79.20;;;;;;4993900;28;20465;-66
2023/09/09 06:38:23;;;;;;;15.38;13.88;;;23.50;79.30;;;;;;5003302;28;20034;-68
2023/09/09 06:40:54;;;;;;;17.02;14.23;;;23.50;79.20;;;;;;5015031;28;20044;-68
2023/09/09 06:43:21;;;;;;;15.25;13.48;;;23.50;79.20;;;;;;5004081;28;20478;-67
2023/09/09 06:45:48;;;;;;;14.65;13.15;;;23.60;79.20;;;;;;5007125;28;20037;-66
2023/09/09 06:48:17;;;;;;;15.13;13.63;;;23.60;79.10;;;;;;5004608;28;20115;-67
2023/09/09 06:50:47;;;;;;;15.23;13.65;;;23.60;79.10;;;;;;5012497;28;20521;-66
2023/09/09 06:53:14;;;;;;;13.98;12.52;;;23.70;79.10;;;;;;5008115;28;20046;-67
2023/09/09 06:55:43;;;;;;;15.40;13.80;;;23.70;79.00;;;;;;5007187;28;20240;-67
2023/09/09 06:58:09;;;;;;;16.58;13.30;;;23.80;79.10;;;;;;5004596;28;20238;-68
2023/09/09 07:00:36;;;;;;;13.85;12.25;;;23.80;79.00;;;;;;5003384;28;20486;-68
2023/09/09 07:03:03;;;;;;;13.77;12.18;;;23.80;79.00;;;;;;5000227;28;20128;-69
2023/09/09 07:05:33;;;;;;;13.77;12.02;;;23.90;79.00;;;;;;5001780;28;20065;-68
2023/09/09 07:08:00;;;;;;;12.48;11.27;;;23.90;78.90;;;;;;5008279;28;20478;-68
2023/09/09 07:10:26;;;;;;;13.23;11.90;;;24.00;78.90;;;;;;5004393;28;20033;-68
2023/09/09 07:12:53;;;;;;;13.30;12.02;;;24.00;78.70;;;;;;5005090;28;20041;-67
2023/09/09 07:15:20;;;;;;;12.98;11.63;;;24.00;78.60;;;;;;5007130;28;20026;-68
2023/09/09 07:17:46;;;;;;;12.38;11.18;;;24.10;78.70;;;;;;4999643;28;20049;-68
2023/09/09 07:20:13;;;;;;;13.23;11.80;;;24.10;78.50;;;;;;5006278;28;20036;-67
2023/09/09 07:22:39;;;;;;;13.77;11.63;;;24.20;78.60;;;;;;5000944;28;20093;-68
2023/09/09 07:25:06;;;;;;;11.80;10.60;;;24.20;78.40;;;;;;5010209;28;20422;-68
2023/09/09 07:27:35;;;;;;;12.43;10.63;;;24.20;78.30;;;;;;5006351;28;20522;-68
2023/09/09 07:30:01;;;;;;;13.77;11.20;;;24.40;78.50;;;;;;5009298;28;20237;-69
2023/09/09 07:32:27;;;;;;;12.88;11.60;;;24.40;78.30;;;;;;5003999;28;20025;-68
2023/09/09 07:35:02;;;;;;;14.38;12.10;;;24.40;78.10;;;;;;5004672;28;20037;-67
2023/09/09 07:37:29;;;;;;;14.35;12.48;;;24.50;78.10;;;;;;5008730;28;20615;-67
2023/09/09 07:39:57;;;;;;;13.45;11.70;;;24.50;78.00;;;;;;5007038;28;20034;-68
2023/09/09 07:42:23;;;;;;;12.88;11.43;;;24.50;77.80;;;;;;5004776;28;20076;-67
2023/09/09 07:44:53;;;;;;;12.18;10.98;;;24.50;77.70;;;;;;5002717;28;20084;-68
2023/09/09 07:47:24;;;;;;;13.52;12.13;;;24.60;77.70;;;;;;5013043;28;20040;-68
2023/09/09 07:49:51;;;;;;;13.73;12.30;;;24.70;77.70;;;;;;5013770;28;20029;-67
2023/09/09 07:52:17;;;;;;;14.77;11.95;;;24.70;77.60;;;;;;5002505;28;20055;-68
2023/09/09 07:54:43;;;;;;;15.10;13.55;;;24.60;77.30;;;;;;5001145;28;20033;-68
2023/09/09 07:57:09;;;;;;;16.23;12.73;;;24.70;77.50;;;;;;5000897;28;20034;-68
2023/09/09 07:59:38;;;;;;;14.15;12.48;;;24.60;77.30;;;;;;4999391;28;20359;-68
2023/09/09 08:02:05;;;;;;;15.45;14.02;;;24.70;77.40;;;;;;5003830;28;20402;-68
2023/09/09 08:04:31;;;;;;;16.23;14.52;;;24.60;77.10;;;;;;5004702;28;20030;-68
2023/09/09 08:06:57;;;;;;;14.50;12.98;;;24.70;77.10;;;;;;5004761;28;20394;-68
2023/09/09 08:09:23;;;;;;;16.33;14.82;;;24.70;76.90;;;;;;5001757;28;20045;-69
2023/09/09 08:11:49;;;;;;;18.02;16.23;;;24.70;76.80;;;;;;5011641;28;20446;-67
2023/09/09 08:14:17;;;;;;;16.30;14.65;;;24.70;76.60;;;;;;5008899;28;20389;-67
2023/09/09 08:16:43;;;;;;;18.50;16.15;;;24.80;76.60;;;;;;5001784;28;20037;-68
2023/09/09 08:19:09;;;;;;;24.85;16.42;;;24.70;76.50;;;;;;5011358;28;20029;-69
2023/09/09 08:21:38;;;;;;;18.45;14.45;;;24.80;76.80;;;;;;5009107;28;20026;-69
2023/09/09 08:24:05;;;;;;;19.75;14.75;;;24.90;77.20;;;;;;5002356;28;20050;-68
2023/09/09 08:26:31;;;;;;;16.17;14.45;;;25.00;77.20;;;;;;5007941;28;20044;-68
2023/09/09 08:28:57;;;;;;;18.83;16.25;;;25.00;76.90;;;;;;5001527;28;20038;-68
2023/09/09 08:31:23;;;;;;;17.33;15.25;;;25.10;76.70;;;;;;5008523;28;20365;-68
2023/09/09 08:33:53;;;;;;;16.77;15.23;;;25.10;76.40;;;;;;5012754;28;20026;-69
2023/09/09 08:36:19;;;;;;;17.67;15.90;;;25.10;76.20;;;;;;5002857;28;20405;-68
2023/09/09 08:38:45;;;;;;;17.80;15.95;;;25.10;76.10;;;;;;5007653;28;20044;-68
2023/09/09 08:41:49;;;;;;;18.88;16.92;;;25.20;76.00;;;;;;5009429;28;20040;-68
2023/09/09 08:44:48;;;;;;;19.45;17.60;;;25.20;75.70;;;;;;5009748;28;20042;-69
2023/09/09 08:47:18;;;;;;;20.17;18.17;;;25.30;75.60;;;;;;5012695;28;20065;-69
2023/09/09 08:49:50;;;;;;;20.63;18.60;;;25.30;75.40;;;;;;5011082;28;20527;-68
2023/09/09 08:52:22;;;;;;;21.50;19.33;;;25.40;75.20;;;;;;5011577;28;20045;-68
2023/09/09 08:54:52;;;;;;;20.70;18.33;;;25.40;75.00;;;;;;5010977;28;20034;-69
2023/09/09 08:57:18;;;;;;;20.50;18.52;;;25.50;75.50;;;;;;5009388;28;20156;-68
2023/09/09 08:59:47;;;;;;;23.55;21.05;;;25.50;74.80;;;;;;5011765;28;20305;-68
2023/09/09 09:02:13;;;;;;;22.27;19.98;;;25.50;74.70;;;;;;5015989;28;20052;-69
2023/09/09 09:04:41;;;;;;;22.75;20.35;;;25.50;74.60;;;;;;5013263;28;20030;-69
2023/09/09 09:07:08;;;;;;;21.10;18.90;;;25.50;74.60;;;;;;5012920;28;20052;-69
2023/09/09 09:09:34;;;;;;;25.48;23.08;;;25.60;74.60;;;;;;5006142;28;20581;-69
2023/09/09 09:12:03;;;;;;;25.00;22.58;;;25.60;74.50;;;;;;5013965;28;20216;-68
2023/09/09 09:14:29;;;;;;;26.13;23.63;;;25.60;74.40;;;;;;5010056;28;20778;-68
2023/09/09 09:17:00;;;;;;;28.05;25.05;;;25.60;74.30;;;;;;5009758;28;20366;-68
2023/09/09 09:19:30;;;;;;;26.92;24.25;;;25.70;74.20;;;;;;5008521;28;20033;-69
2023/09/09 09:21:58;;;;;;;26.20;23.52;;;25.70;74.00;;;;;;5014463;28;20512;-69
2023/09/09 09:24:25;;;;;;;24.05;21.73;;;25.80;73.90;;;;;;5009059;28;20037;-69
2023/09/09 09:26:52;;;;;;;25.33;22.80;;;25.80;73.80;;;;;;5012447;28;20034;-68
2023/09/09 09:29:18;;;;;;;25.02;22.48;;;25.90;73.70;;;;;;5008230;28;20153;-69
2023/09/09 09:31:51;;;;;;;27.50;24.70;;;26.00;73.60;;;;;;5018152;28;20033;-68
2023/09/09 09:34:31;;;;;;;26.40;23.75;;;26.10;73.40;;;;;;5016630;28;20026;-69
2023/09/09 09:37:13;;;;;;;26.20;23.70;;;26.20;73.30;;;;;;5009605;28;20034;-70
2023/09/09 09:39:39;;;;;;;26.77;24.33;;;26.30;73.10;;;;;;5015521;28;20045;-69
2023/09/09 09:42:13;;;;;;;27.23;24.48;;;26.30;72.90;;;;;;5010279;28;20053;-69
2023/09/09 09:44:39;;;;;;;25.75;23.30;;;26.40;72.80;;;;;;5012105;28;20042;-69
2023/09/09 09:47:08;;;;;;;28.27;25.23;;;26.40;72.60;;;;;;5013482;28;20135;-69
2023/09/09 09:49:44;;;;;;;28.02;25.58;;;26.50;72.60;;;;;;5010937;28;20030;-68
2023/09/09 09:52:23;;;;;;;27.58;24.95;;;26.50;72.50;;;;;;5014777;28;20048;-69
2023/09/09 09:54:52;;;;;;;27.55;24.65;;;26.50;72.40;;;;;;5017395;28;20142;-71
2023/09/09 09:57:21;;;;;;;27.60;24.80;;;26.50;72.50;;;;;;5008498;28;20040;-69
2023/09/09 09:59:47;;;;;;;27.67;24.92;;;26.40;72.50;;;;;;5010672;28;20061;-69
2023/09/09 10:02:15;;;;;;;27.77;25.08;;;26.40;72.70;;;;;;5012058;28;20079;-69
2023/09/09 10:04:51;;;;;;;29.15;26.27;;;26.30;72.70;;;;;;5011864;28;20140;-70
2023/09/09 10:07:23;;;;;;;28.17;25.38;;;26.30;72.90;;;;;;5012529;28;20480;-69
2023/09/09 10:09:59;;;;;;;26.73;24.02;;;26.20;73.00;;;;;;5009139;28;20452;-69
2023/09/09 10:12:33;;;;;;;26.08;23.45;;;26.20;73.20;;;;;;5010569;28;20099;-70
2023/09/09 10:15:12;;;;;;;27.00;24.33;;;26.20;73.40;;;;;;5003505;28;20041;-71
2023/09/09 10:17:39;;;;;;;27.05;24.23;;;26.10;73.40;;;;;;5009599;28;20374;-70
2023/09/09 10:20:07;;;;;;;25.30;22.85;;;26.10;73.60;;;;;;5008260;28;20143;-69
2023/09/09 10:22:42;;;;;;;22.45;20.45;;;26.10;73.70;;;;;;5005757;28;20034;-69
2023/09/09 10:25:11;;;;;;;23.33;21.10;;;26.10;73.80;;;;;;5012585;28;20045;-69
2023/09/09 10:27:41;;;;;;;22.58;20.45;;;26.20;73.90;;;;;;5010654;28;20040;-69
2023/09/09 10:30:10;;;;;;;23.63;21.15;;;26.20;73.90;;;;;;5011652;28;20105;-68
2023/09/09 10:32:38;;;;;;;22.15;19.98;;;26.30;74.00;;;;;;5011945;28;20075;-68
2023/09/09 10:35:05;;;;;;;22.90;20.60;;;26.30;73.90;;;;;;5009436;28;20041;-69
2023/09/09 10:37:37;;;;;;;23.25;20.85;;;26.40;73.80;;;;;;5011314;28;20064;-69
2023/09/09 10:40:09;;;;;;;24.50;22.23;;;26.40;73.70;;;;;;5010122;28;20064;-68
2023/09/09 10:42:41;;;;;;;25.52;23.02;;;26.50;73.70;;;;;;5015842;28;20034;-69
2023/09/09 10:45:31;;;;;;;24.85;22.48;;;26.50;73.70;;;;;;5011911;28;20045;-69
2023/09/09 10:48:05;;;;;;;24.25;22.05;;;26.50;73.60;;;;;;5011370;28;20508;-68
2023/09/09 10:51:06;;;;;;;26.20;23.80;;;26.60;73.70;;;;;;5009464;28;20077;-69
2023/09/09 10:53:35;;;;;;;27.02;24.23;;;26.60;73.60;;;;;;4997986;28;20053;-68
2023/09/09 10:56:16;;;;;;;28.13;25.20;;;26.60;73.50;;;;;;5013271;28;20275;-69
2023/09/09 10:58:46;;;;;;;27.35;24.58;;;26.70;73.50;;;;;;5016126;28;20167;-68
2023/09/09 11:01:27;;;;;;;26.45;23.90;;;26.80;73.50;;;;;;5006605;28;20368;-69
2023/09/09 11:03:57;;;;;;;25.73;23.02;;;26.80;73.40;;;;;;5016848;28;20045;-69
2023/09/09 11:06:29;;;;;;;27.85;24.50;;;26.90;73.40;;;;;;5011749;28;20132;-69
2023/09/09 11:08:59;;;;;;;26.10;23.60;;;26.90;73.30;;;;;;5011610;28;20485;-68
2023/09/09 11:11:42;;;;;;;25.98;23.38;;;27.00;73.20;;;;;;5007582;28;20040;-68
2023/09/09 11:14:10;;;;;;;25.92;23.50;;;27.00;73.20;;;;;;5021684;28;20037;-69
2023/09/09 11:16:41;;;;;;;25.27;22.75;;;27.10;73.20;;;;;;5012340;28;20060;-69
2023/09/09 11:19:12;;;;;;;26.63;24.10;;;27.10;73.10;;;;;;5012437;28;20041;-68
2023/09/09 11:21:49;;;;;;;25.25;22.70;;;27.10;73.00;;;;;;5027935;28;20072;-68
2023/09/09 11:24:16;;;;;;;26.40;23.60;;;27.20;73.00;;;;;;5009989;28;20279;-69
2023/09/09 11:26:44;;;;;;;27.17;23.30;;;27.20;73.00;;;;;;5012260;28;20035;-69
2023/09/09 11:29:10;;;;;;;29.10;25.33;;;27.30;73.00;;;;;;5014983;28;20121;-69
2023/09/09 11:31:36;;;;;;;26.02;23.33;;;27.30;73.00;;;;;;5014861;28;20029;-69
2023/09/09 11:34:04;;;;;;;35.80;25.40;;;27.40;73.10;;;;;;5009720;28;20041;-68
2023/09/09 11:36:30;;;;;;;27.08;24.20;;;27.40;73.20;;;;;;5004327;28;20037;-68
2023/09/09 11:38:59;;;;;;;29.52;24.65;;;27.40;73.30;;;;;;5006227;28;20033;-68
2023/09/09 11:41:30;;;;;;;33.50;26.42;;;27.50;73.50;;;;;;5013274;28;20105;-68
2023/09/09 11:44:09;;;;;;;30.88;26.75;;;27.50;73.80;;;;;;5009584;28;20053;-68
2023/09/09 11:46:45;;;;;;;29.15;25.83;;;27.60;74.30;;;;;;5013309;28;20091;-68
2023/09/09 11:49:13;;;;;;;26.42;23.30;;;27.70;74.40;;;;;;5006536;28;20441;-69
2023/09/09 11:51:39;;;;;;;26.10;23.45;;;27.70;74.20;;;;;;5011143;28;20060;-68
2023/09/09 11:54:06;;;;;;;25.65;23.05;;;27.80;74.10;;;;;;5011615;28;20591;-69
2023/09/09 11:56:33;;;;;;;24.20;21.20;;;27.80;73.90;;;;;;5010001;28;20030;-69
2023/09/09 11:59:09;;;;;;;22.85;20.55;;;27.90;73.80;;;;;;5007114;28;20044;-68
2023/09/09 12:01:43;;;;;;;21.17;19.10;;;28.00;73.60;;;;;;5011446;28;20851;-68
2023/09/09 12:04:11;;;;;;;23.65;19.23;;;28.00;73.30;;;;;;5004925;28;20125;-68
2023/09/09 12:06:46;;;;;;;19.88;17.98;;;28.00;73.20;;;;;;5012853;28;20449;-68
2023/09/09 12:09:12;;;;;;;19.67;17.73;;;28.10;73.10;;;;;;5013518;28;20025;-68
2023/09/09 12:11:40;;;;;;;19.00;17.40;;;28.20;72.90;;;;;;5014681;28;20032;-68
2023/09/09 12:14:07;;;;;;;19.60;16.83;;;28.20;72.80;;;;;;5004402;28;20041;-68
2023/09/09 12:16:34;;;;;;;17.88;16.08;;;28.30;72.70;;;;;;5000572;28;20034;-69
2023/09/09 12:19:00;;;;;;;17.13;14.73;;;28.30;72.50;;;;;;5004491;28;20438;-68
2023/09/09 12:21:26;;;;;;;18.90;15.00;;;28.30;72.30;;;;;;5011139;28;20164;-68
2023/09/09 12:23:58;;;;;;;22.00;16.33;;;28.40;72.30;;;;;;5009895;28;20432;-68
2023/09/09 12:26:24;;;;;;;15.18;13.75;;;28.40;72.10;;;;;;5009003;28;20332;-69
2023/09/09 12:29:09;;;;;;;15.10;13.60;;;28.50;71.90;;;;;;5015358;28;20040;-68
2023/09/09 12:31:57;;;;;;;16.80;13.52;;;28.50;71.70;;;;;;5009391;28;20033;-68
2023/09/09 12:34:25;;;;;;;14.85;13.25;;;28.50;71.30;;;;;;5017164;28;20037;-68